createdAt,value
2023-02-09T00:08:30.793Z,64.0
2023-02-09T00:20:30.801Z,65.0
2023-02-09T00:32:30.799Z,68.0
2023-02-09T00:44:30.802Z,68.0
2023-02-09T00:56:30.866Z,68.0
2023-02-09T01:08:30.853Z,69.0
2023-02-09T01:21:30.814Z,70.0
2023-02-09T01:33:30.840Z,68.0
2023-02-09T01:45:30.868Z,68.0
2023-02-09T01:57:30.903Z,72.0
2023-02-09T02:09:30.874Z,73.0
2023-02-09T02:21:31.179Z,73.0
2023-02-09T02:33:31.182Z,72.0
2023-02-09T02:45:31.236Z,75.0
2023-02-09T02:57:31.314Z,76.0
2023-02-09T03:09:31.357Z,76.0
2023-02-09T06:31:10.563Z,79.0
2023-02-09T06:46:12.496Z,78.0
2023-02-09T07:02:03.441Z,74.0
2023-02-09T07:17:03.392Z,71.0
2023-02-09T07:32:03.419Z,76.0
2023-02-09T07:36:32.220Z,75.0
2023-02-09T07:47:44.778Z,74.0
2023-02-09T07:55:03.809Z,71.0
2023-02-09T08:02:51.220Z,60.0
2023-02-09T08:08:39.592Z,56.0
2023-02-09T08:18:33.584Z,54.0
2023-02-09T08:33:31.462Z,48.0
2023-02-09T08:59:32.992Z,44.0
2023-02-09T09:10:29.290Z,44.0
2023-02-09T09:16:55.807Z,40.0
2023-02-09T09:31:56.188Z,39.0
2023-02-09T09:37:53.541Z,39.0
2023-02-09T09:57:14.881Z,39.0
2023-02-09T10:04:16.228Z,39.0
2023-02-09T10:15:52.773Z,39.0
2023-02-09T10:28:49.343Z,37.0
2023-02-09T10:43:49.451Z,36.0
2023-02-09T10:51:06.520Z,37.0
2023-02-09T10:55:59.747Z,38.0
2023-02-09T11:11:00.002Z,39.0
2023-02-09T11:26:00.185Z,38.0
2023-02-09T11:32:09.288Z,37.0
2023-02-09T11:47:09.405Z,36.0
2023-02-09T12:08:19.731Z,36.0
2023-02-09T12:23:16.588Z,36.0
2023-02-09T12:28:24.497Z,34.0
2023-02-09T12:43:24.367Z,35.0
2023-02-09T12:59:24.455Z,34.0
2023-02-09T13:14:24.483Z,34.0
2023-02-09T13:30:07.661Z,34.0
2023-02-09T13:38:27.940Z,32.0
2023-02-09T13:53:27.768Z,32.0
2023-02-09T14:00:35.688Z,32.0
2023-02-09T14:04:32.972Z,32.0
2023-02-09T14:10:39.219Z,32.0
2023-02-09T14:25:39.015Z,33.0
2023-02-09T14:35:27.181Z,32.0
2023-02-09T14:45:12.822Z,33.0
2023-02-09T14:59:00.168Z,32.0
2023-02-09T15:03:28.028Z,32.0
2023-02-09T15:18:41.500Z,33.0
2023-02-09T15:27:56.764Z,32.0
2023-02-09T15:47:02.665Z,34.0
2023-02-09T16:02:02.231Z,38.0
2023-02-09T16:09:21.990Z,41.0
2023-02-09T16:20:28.581Z,47.0
2023-02-09T16:27:23.378Z,53.0
2023-02-09T16:38:43.624Z,58.0
2023-02-09T16:53:11.416Z,59.0
2023-02-09T16:58:25.090Z,59.0
2023-02-09T17:16:59.379Z,59.0
2023-02-09T17:32:57.313Z,65.0
2023-02-09T17:46:06.252Z,68.0
2023-02-09T17:53:42.027Z,70.0
2023-02-09T18:13:57.202Z,71.0
2023-02-09T18:20:11.370Z,72.0
2023-02-09T18:42:30.608Z,72.0
2023-02-09T18:54:44.748Z,72.0
2023-02-09T19:13:05.192Z,75.0
2023-02-09T19:17:42.472Z,75.0
2023-02-09T19:29:28.831Z,75.0
2023-02-09T19:35:33.943Z,75.0
2023-02-09T19:46:26.734Z,77.0
2023-02-09T20:05:25.750Z,67.0
2023-02-09T20:10:43.443Z,66.0
2023-02-09T20:18:58.013Z,69.0
2023-02-09T20:28:53.338Z,69.0
2023-02-09T20:38:08.652Z,72.0
2023-02-09T20:44:26.532Z,73.0
2023-02-09T21:00:56.675Z,77.0
2023-02-09T21:14:56.504Z,77.0
2023-02-09T21:27:00.006Z,77.0
2023-02-09T21:32:08.708Z,77.0
2023-02-09T21:42:16.605Z,77.0
2023-02-09T21:57:44.422Z,77.0
2023-02-09T22:11:44.464Z,77.0
2023-02-09T22:26:56.323Z,78.0
2023-02-09T22:40:56.259Z,79.0
2023-02-09T22:51:16.961Z,78.0
2023-02-09T22:59:11.581Z,78.0
2023-02-09T23:07:12.866Z,78.0
2023-02-09T23:23:28.900Z,78.0
2023-02-09T23:36:20.744Z,77.0
2023-02-09T23:45:32.881Z,77.0
2023-02-09T23:54:53.092Z,75.0
